Dart — OUOV2 — position and weather

sailwx.info

Track history (hours):
 
Tides and Currents Weather Stations Pressure Air Temp Water Temp Dewpoint Dewpoint Depression Visibility Wind Speed Wind Dir Waves Ship Positions

Dart

Last reported at 2014-Oct-22 07:33 UTC. Time now 2014-Oct-22 08:02 UTC.
Position N 66°57' E 013°29'.

Length 66 m; draft 4.9 m.

Type: Tanker. MMSI: 219416000.

Date/timePositionNaut miles runAvg speedWind from/ knotsBaromVisibWave heightAir tempDewpointWater temp
2014-Oct-22 07:33N 66°57' E 013°29'9 8.7
2014-Oct-22 06:28N 67°02' E 013°49'8 8.4
2014-Oct-22 05:34N 67°08' E 014°02'8 8.4
2014-Oct-22 04:33N 67°15' E 014°12'8 8.3
2014-Oct-22 03:33N 67°22' E 014°24'6 6.1
2014-Oct-22 02:33N 67°28' E 014°24'6 6.4
2014-Oct-22 01:33N 67°35' E 014°23'7 7.0
2014-Oct-22 00:33N 67°42' E 014°22'7 7.4
2014-Oct-21 23:33N 67°49' E 014°25'143 8.4
2014-Oct-21 06:32N 69°35' E 018°50'8 8.3
2014-Oct-21 05:33N 69°42' E 019°02'93 8.4
2014-Oct-20 18:30N 70°30' E 022°53'8 8.9
2014-Oct-20 17:33N 70°36' E 023°14'8 8.3
2014-Oct-20 16:33N 70°37' E 023°38'1 0.3
2014-Oct-20 14:03N 70°38' E 023°39'0 0.0
2014-Oct-20 12:18N 70°38' E 023°39'0 0.0
2014-Oct-20 10:33N 70°38' E 023°39'0 0.0
2014-Oct-20 05:09N 70°38' E 023°39'0 0.0
2014-Oct-20 03:03N 70°38' E 023°39'0 0.0
2014-Oct-19 19:33N 70°38' E 023°39'1 0.0
2014-Oct-18 14:32N 70°37' E 023°37'5 4.3
2014-Oct-18 13:27N 70°38' E 023°24'1011.4
2014-Oct-18 12:33N 70°31' E 023°00'1410.9
2014-Oct-18 11:16N 70°27' E 022°21'8110.5
2014-Oct-18 03:33N 69°43' E 019°03'1110.8
2014-Oct-18 02:33N 69°34' E 018°47'142 9.9
2014-Oct-17 12:15N 67°48' E 014°26'710.7
2014-Oct-17 11:33N 67°42' E 014°17'1110.6
2014-Oct-17 10:33N 67°31' E 014°22'1010.0
2014-Oct-17 09:33N 67°21' E 014°23'1110.6
2014-Oct-17 08:33N 67°12' E 014°08'1110.7
2014-Oct-17 07:30N 67°03' E 013°51'1010.6
2014-Oct-17 06:32N 66°57' E 013°30'2310.2
2014-Oct-17 04:18N 66°37' E 013°05'7 8.3
2014-Oct-17 03:26N 66°30' E 012°59'910.2
2014-Oct-17 02:33N 66°21' E 012°58'69 9.8
2014-Oct-16 19:33N 65°17' E 011°58'1110.5
2014-Oct-16 18:31N 65°07' E 011°49'10 9.8
2014-Oct-16 17:33N 65°00' E 011°31'1010.1
2014-Oct-16 16:33N 64°52' E 011°17'1110.5
2014-Oct-16 15:33N 64°45' E 010°60'  
2014-Oct-13 18:33N 59°28' E 005°13'9 9.3
2014-Oct-13 17:33N 59°20' E 005°20'1010.3
2014-Oct-13 16:33N 59°09' E 005°22'9 9.1
2014-Oct-13 15:33N 59°02' E 005°33'7 6.8
2014-Oct-13 14:33N 58°56' E 005°36'0 0.0
2014-Oct-13 13:32N 58°56' E 005°36'0 0.0
2014-Oct-13 12:33N 58°56' E 005°36'9 8.7
2014-Oct-13 11:33N 58°49' E 005°26'2110.3
2014-Oct-13 09:32N 58°28' E 005°28'1210.4
2014-Oct-13 08:22N 58°16' E 005°26'21610.4
2014-Oct-12 11:28N 54°40' E 004°57'1010.4
2014-Oct-12 10:33N 54°30' E 004°57'2510.5
2014-Oct-12 08:12N 54°06' E 004°56'  
Track history (hours):
 
Tides and Currents Weather Stations Pressure Air Temp Water Temp Dewpoint Dewpoint Depression Visibility Wind Speed Wind Dir Waves Ship Positions

Dart

Last reported at 2014-Oct-22 07:33 UTC. Time now 2014-Oct-22 08:02 UTC.
Position N 66°57' E 013°29'.

Length 66 m; draft 4.9 m.

Type: Tanker. MMSI: 219416000.

Date/timePositionNaut miles runAvg speedWind from/ knotsBaromVisibWave heightAir tempDewpointWater temp
2014-Oct-22 07:33N 66°57' E 013°29'9 8.7
2014-Oct-22 06:28N 67°02' E 013°49'8 8.4
2014-Oct-22 05:34N 67°08' E 014°02'8 8.4
2014-Oct-22 04:33N 67°15' E 014°12'8 8.3
2014-Oct-22 03:33N 67°22' E 014°24'6 6.1
2014-Oct-22 02:33N 67°28' E 014°24'6 6.4
2014-Oct-22 01:33N 67°35' E 014°23'7 7.0
2014-Oct-22 00:33N 67°42' E 014°22'7 7.4
2014-Oct-21 23:33N 67°49' E 014°25'143 8.4
2014-Oct-21 06:32N 69°35' E 018°50'8 8.3
2014-Oct-21 05:33N 69°42' E 019°02'93 8.4
2014-Oct-20 18:30N 70°30' E 022°53'8 8.9
2014-Oct-20 17:33N 70°36' E 023°14'8 8.3
2014-Oct-20 16:33N 70°37' E 023°38'1 0.3
2014-Oct-20 14:03N 70°38' E 023°39'0 0.0
2014-Oct-20 12:18N 70°38' E 023°39'0 0.0
2014-Oct-20 10:33N 70°38' E 023°39'0 0.0
2014-Oct-20 05:09N 70°38' E 023°39'0 0.0
2014-Oct-20 03:03N 70°38' E 023°39'0 0.0
2014-Oct-19 19:33N 70°38' E 023°39'1 0.0
2014-Oct-18 14:32N 70°37' E 023°37'5 4.3
2014-Oct-18 13:27N 70°38' E 023°24'1011.4
2014-Oct-18 12:33N 70°31' E 023°00'1410.9
2014-Oct-18 11:16N 70°27' E 022°21'8110.5
2014-Oct-18 03:33N 69°43' E 019°03'1110.8
2014-Oct-18 02:33N 69°34' E 018°47'142 9.9
2014-Oct-17 12:15N 67°48' E 014°26'710.7
2014-Oct-17 11:33N 67°42' E 014°17'1110.6
2014-Oct-17 10:33N 67°31' E 014°22'1010.0
2014-Oct-17 09:33N 67°21' E 014°23'1110.6
2014-Oct-17 08:33N 67°12' E 014°08'1110.7
2014-Oct-17 07:30N 67°03' E 013°51'1010.6
2014-Oct-17 06:32N 66°57' E 013°30'2310.2
2014-Oct-17 04:18N 66°37' E 013°05'7 8.3
2014-Oct-17 03:26N 66°30' E 012°59'910.2
2014-Oct-17 02:33N 66°21' E 012°58'69 9.8
2014-Oct-16 19:33N 65°17' E 011°58'1110.5
2014-Oct-16 18:31N 65°07' E 011°49'10 9.8
2014-Oct-16 17:33N 65°00' E 011°31'1010.1
2014-Oct-16 16:33N 64°52' E 011°17'1110.5
2014-Oct-16 15:33N 64°45' E 010°60'  
2014-Oct-13 18:33N 59°28' E 005°13'9 9.3
2014-Oct-13 17:33N 59°20' E 005°20'1010.3
2014-Oct-13 16:33N 59°09' E 005°22'9 9.1
2014-Oct-13 15:33N 59°02' E 005°33'7 6.8
2014-Oct-13 14:33N 58°56' E 005°36'0 0.0
2014-Oct-13 13:32N 58°56' E 005°36'0 0.0
2014-Oct-13 12:33N 58°56' E 005°36'9 8.7
2014-Oct-13 11:33N 58°49' E 005°26'2110.3
2014-Oct-13 09:32N 58°28' E 005°28'1210.4
2014-Oct-13 08:22N 58°16' E 005°26'21610.4
2014-Oct-12 11:28N 54°40' E 004°57'1010.4
2014-Oct-12 10:33N 54°30' E 004°57'2510.5
2014-Oct-12 08:12N 54°06' E 004°56'  

Dump ship's entire track history